Time,TemperatureF,DewpointF,PressureIn,WindDirection,WindDirectionDegrees,WindSpeedMPH,WindSpeedGustMPH,Humidity,HourlyPrecipIn,Conditions,Clouds,dailyrainin,SoftwareType,DateUTC
2013-08-24 00:00:00,76.8,74.3,30.00,East,81,1.0,3.0,92,0.00,,,0.00,Wunderground v.1.15,2013-08-24 05:00:00,
2013-08-24 00:05:00,76.7,74.2,29.99,ESE,105,1.0,3.0,92,0.00,,,0.00,Wunderground v.1.15,2013-08-24 05:05:00,
2013-08-24 00:15:00,76.5,74.3,29.99,SE,129,1.0,3.0,93,0.00,,,0.00,Wunderground v.1.15,2013-08-24 05:15:00,
2013-08-24 00:25:00,76.5,74.6,29.99,SE,138,0.0,3.0,94,0.00,,,0.00,Wunderground v.1.15,2013-08-24 05:25:00,
2013-08-24 00:30:00,76.4,74.5,29.99,SE,136,1.0,3.0,94,0.00,,,0.00,Wunderground v.1.15,2013-08-24 05:30:00,
2013-08-24 00:40:00,76.0,74.1,30.00,ESE,110,0.0,3.0,94,0.00,,,0.00,Wunderground v.1.15,2013-08-24 05:40:00,
2013-08-24 00:45:00,75.7,73.8,29.99,ESE,115,0.0,3.0,94,0.00,,,0.00,Wunderground v.1.15,2013-08-24 05:45:00,
2013-08-24 00:50:00,75.5,74.0,29.99,ESE,122,1.0,1.0,95,0.00,,,0.00,Wunderground v.1.15,2013-08-24 05:50:00,
2013-08-24 01:00:00,75.4,73.9,29.99,ESE,122,0.0,3.0,95,0.00,,,0.00,Wunderground v.1.15,2013-08-24 06:00:00,
2013-08-24 01:05:00,75.5,74.0,29.99,ESE,122,0.0,3.0,95,0.00,,,0.00,Wunderground v.1.15,2013-08-24 06:05:00,
2013-08-24 01:15:00,75.4,73.9,29.99,ESE,122,0.0,3.0,95,0.00,,,0.00,Wunderground v.1.15,2013-08-24 06:15:00,
2013-08-24 01:20:00,75.4,73.9,29.99,ESE,120,0.0,3.0,95,0.00,,,0.00,Wunderground v.1.15,2013-08-24 06:20:00,
2013-08-24 01:25:00,75.3,73.8,29.98,ESE,120,0.0,3.0,95,0.00,,,0.00,Wunderground v.1.15,2013-08-24 06:25:00,
2013-08-24 01:35:00,75.2,74.0,29.98,East,98,0.0,3.0,96,0.00,,,0.00,Wunderground v.1.15,2013-08-24 06:35:00,
2013-08-24 01:40:00,75.3,74.1,29.98,East,84,0.0,3.0,96,0.00,,,0.00,Wunderground v.1.15,2013-08-24 06:40:00,
2013-08-24 01:50:00,75.2,74.0,29.98,East,84,0.0,3.0,96,0.00,,,0.00,Wunderground v.1.15,2013-08-24 06:50:00,
2013-08-24 01:55:00,75.1,73.9,29.97,East,84,0.0,3.0,96,0.00,,,0.00,Wunderground v.1.15,2013-08-24 06:55:00,
2013-08-24 02:00:00,75.1,73.9,29.97,ESE,105,0.0,3.0,96,0.00,,,0.00,Wunderground v.1.15,2013-08-24 07:00:00,
2013-08-24 02:10:00,74.8,73.6,29.97,East,94,1.0,3.0,96,0.00,,,0.00,Wunderground v.1.15,2013-08-24 07:10:00,
2013-08-24 02:15:00,74.6,73.4,29.97,East,94,1.0,3.0,96,0.00,,,0.00,Wunderground v.1.15,2013-08-24 07:15:00,
2013-08-24 02:25:00,74.5,73.6,29.97,ESE,114,1.0,3.0,97,0.00,,,0.00,Wunderground v.1.15,2013-08-24 07:25:00,
2013-08-24 02:30:00,74.6,73.7,29.97,ESE,102,1.0,3.0,97,0.00,,,0.00,Wunderground v.1.15,2013-08-24 07:30:00,
2013-08-24 02:35:00,74.5,73.6,29.96,East,96,0.0,3.0,97,0.00,,,0.00,Wunderground v.1.15,2013-08-24 07:35:00,
2013-08-24 02:40:00,74.6,73.7,29.97,NE,34,1.0,3.0,97,0.00,,,0.00,Wunderground v.1.15,2013-08-24 07:40:00,
2013-08-24 02:50:00,74.6,73.7,29.97,NE,35,2.0,2.0,97,0.00,,,0.00,Wunderground v.1.15,2013-08-24 07:50:00,
2013-08-24 02:55:00,74.7,73.8,29.97,NE,41,1.0,3.0,97,0.00,,,0.00,Wunderground v.1.15,2013-08-24 07:55:00,
2013-08-24 03:05:00,74.5,73.6,29.97,NE,46,1.0,3.0,97,0.00,,,0.00,Wunderground v.1.15,2013-08-24 08:05:00,
2013-08-24 03:10:00,74.5,73.6,29.97,NE,35,1.0,3.0,97,0.00,,,0.00,Wunderground v.1.15,2013-08-24 08:10:00,
2013-08-24 03:15:00,74.5,73.6,29.97,NNE,27,1.0,3.0,97,0.00,,,0.00,Wunderground v.1.15,2013-08-24 08:15:00,
2013-08-24 03:20:00,74.5,73.6,29.97,NNE,20,1.0,1.0,97,0.00,,,0.00,Wunderground v.1.15,2013-08-24 08:20:00,
2013-08-24 03:30:00,74.4,73.5,29.97,ENE,59,1.0,3.0,97,0.00,,,0.00,Wunderground v.1.15,2013-08-24 08:30:00,
2013-08-24 03:35:00,74.4,73.5,29.97,ENE,70,1.0,3.0,97,0.00,,,0.00,Wunderground v.1.15,2013-08-24 08:35:00,
2013-08-24 03:45:00,74.3,73.4,29.97,ENE,66,1.0,3.0,97,0.00,,,0.00,Wunderground v.1.15,2013-08-24 08:45:00,
2013-08-24 03:50:00,74.3,73.4,29.97,ESE,109,1.0,1.0,97,0.00,,,0.00,Wunderground v.1.15,2013-08-24 08:50:00,
2013-08-24 03:55:00,74.2,73.3,29.97,ESE,108,0.0,3.0,97,0.00,,,0.00,Wunderground v.1.15,2013-08-24 08:55:00,
2013-08-24 04:00:00,74.1,73.2,29.97,ESE,108,0.0,3.0,97,0.00,,,0.00,Wunderground v.1.15,2013-08-24 09:00:00,
2013-08-24 04:10:00,73.8,72.9,29.97,North,11,0.0,3.0,97,0.00,,,0.00,Wunderground v.1.15,2013-08-24 09:10:00,
2013-08-24 04:15:00,73.8,72.9,29.97,NNE,25,0.0,3.0,97,0.00,,,0.00,Wunderground v.1.15,2013-08-24 09:15:00,
2013-08-24 04:20:00,73.8,72.9,29.97,NNE,30,0.0,3.0,97,0.00,,,0.00,Wunderground v.1.15,2013-08-24 09:20:00,
2013-08-24 04:30:00,73.7,72.8,29.97,NE,35,0.0,3.0,97,0.00,,,0.00,Wunderground v.1.15,2013-08-24 09:30:00,
2013-08-24 04:35:00,73.7,72.8,29.97,NE,35,0.0,3.0,97,0.00,,,0.00,Wunderground v.1.15,2013-08-24 09:35:00,
2013-08-24 04:40:00,73.7,72.8,29.97,NNE,19,1.0,3.0,97,0.00,,,0.00,Wunderground v.1.15,2013-08-24 09:40:00,
2013-08-24 04:50:00,73.7,73.1,29.97,NNE,30,2.0,3.0,98,0.00,,,0.00,Wunderground v.1.15,2013-08-24 09:50:00,
2013-08-24 04:55:00,73.7,73.1,29.97,NE,46,2.0,3.0,98,0.00,,,0.00,Wunderground v.1.15,2013-08-24 09:55:00,
2013-08-24 05:00:00,73.8,73.2,29.97,ENE,76,1.0,1.0,98,0.00,,,0.00,Wunderground v.1.15,2013-08-24 10:00:00,
2013-08-24 05:10:00,73.7,72.8,29.97,North,1,1.0,3.0,97,0.00,,,0.00,Wunderground v.1.15,2013-08-24 10:10:00,
2013-08-24 05:15:00,73.6,72.7,29.98,NNE,20,2.0,3.0,97,0.00,,,0.00,Wunderground v.1.15,2013-08-24 10:15:00,
2013-08-24 05:20:00,73.6,72.7,29.98,NNE,21,1.0,1.0,97,0.00,,,0.00,Wunderground v.1.15,2013-08-24 10:20:00,
2013-08-24 05:30:00,73.6,73.0,29.99,ENE,72,1.0,3.0,98,0.00,,,0.00,Wunderground v.1.15,2013-08-24 10:30:00,
2013-08-24 05:35:00,73.6,72.7,29.99,ENE,61,1.0,3.0,97,0.00,,,0.00,Wunderground v.1.15,2013-08-24 10:35:00,
2013-08-24 05:40:00,73.5,72.6,29.99,NE,55,2.0,2.0,97,0.00,,,0.00,Wunderground v.1.15,2013-08-24 10:40:00,
2013-08-24 05:50:00,73.4,72.8,29.99,NE,41,1.0,3.0,98,0.00,,,0.00,Wunderground v.1.15,2013-08-24 10:50:00,
2013-08-24 05:55:00,73.4,72.8,29.99,NE,51,1.0,3.0,98,0.00,,,0.00,Wunderground v.1.15,2013-08-24 10:55:00,
2013-08-24 06:05:00,73.3,72.7,29.99,NNE,27,1.0,3.0,98,0.00,,,0.00,Wunderground v.1.15,2013-08-24 11:05:00,
2013-08-24 06:10:00,73.3,72.7,29.99,ENE,77,1.0,3.0,98,0.00,,,0.00,Wunderground v.1.15,2013-08-24 11:10:00,
2013-08-24 06:15:00,73.3,72.7,29.99,NE,46,1.0,3.0,98,0.00,,,0.00,Wunderground v.1.15,2013-08-24 11:15:00,
2013-08-24 06:20:00,73.3,72.7,30.00,ENE,58,1.0,3.0,98,0.00,,,0.00,Wunderground v.1.15,2013-08-24 11:20:00,
2013-08-24 06:30:00,73.3,72.7,30.00,ENE,57,1.0,3.0,98,0.00,,,0.00,Wunderground v.1.15,2013-08-24 11:30:00,
2013-08-24 06:35:00,73.3,72.7,30.00,ENE,58,2.0,4.0,98,0.00,,,0.00,Wunderground v.1.15,2013-08-24 11:35:00,
2013-08-24 06:45:00,73.3,72.7,30.01,NE,46,2.0,3.0,98,0.00,,,0.00,Wunderground v.1.15,2013-08-24 11:45:00,
2013-08-24 06:50:00,73.4,72.8,30.01,NE,37,2.0,3.0,98,0.00,,,0.00,Wunderground v.1.15,2013-08-24 11:50:00,
2013-08-24 06:55:00,73.4,72.8,30.01,NE,49,2.0,3.0,98,0.00,,,0.00,Wunderground v.1.15,2013-08-24 11:55:00,
2013-08-24 07:00:00,73.5,72.9,30.01,NE,44,2.0,3.0,98,0.00,,,0.00,Wunderground v.1.15,2013-08-24 12:00:00,
2013-08-24 07:10:00,73.9,73.0,30.01,NNE,26,2.0,3.0,97,0.00,,,0.00,Wunderground v.1.15,2013-08-24 12:10:00,
2013-08-24 07:15:00,74.0,73.1,30.01,ENE,68,2.0,3.0,97,0.00,,,0.00,Wunderground v.1.15,2013-08-24 12:15:00,
2013-08-24 07:25:00,74.3,73.4,30.02,ENE,57,3.0,5.0,97,0.00,,,0.00,Wunderground v.1.15,2013-08-24 12:25:00,
2013-08-24 07:30:00,74.5,73.6,30.02,NE,53,3.0,3.0,97,0.00,,,0.00,Wunderground v.1.15,2013-08-24 12:30:00,
2013-08-24 07:35:00,74.8,73.6,30.02,NE,49,3.0,5.0,96,0.00,,,0.00,Wunderground v.1.15,2013-08-24 12:35:00,
2013-08-24 07:45:00,75.3,73.8,30.02,ENE,60,3.0,3.0,95,0.00,,,0.00,Wunderground v.1.15,2013-08-24 12:45:00,
2013-08-24 07:50:00,75.5,74.0,30.02,ENE,60,3.0,3.0,95,0.00,,,0.00,Wunderground v.1.15,2013-08-24 12:50:00,
2013-08-24 08:00:00,76.2,74.3,30.02,NE,54,4.0,8.0,94,0.00,,,0.00,Wunderground v.1.15,2013-08-24 13:00:00,
2013-08-24 08:05:00,76.3,74.4,30.03,ENE,70,4.0,8.0,94,0.00,,,0.00,Wunderground v.1.15,2013-08-24 13:05:00,
2013-08-24 08:10:00,76.8,74.6,30.02,East,99,4.0,4.0,93,0.00,,,0.00,Wunderground v.1.15,2013-08-24 13:10:00,
2013-08-24 08:20:00,77.5,75.0,30.03,NE,53,4.0,7.0,92,0.00,,,0.00,Wunderground v.1.15,2013-08-24 13:20:00,
2013-08-24 08:25:00,77.9,75.1,30.03,ESE,105,4.0,7.0,91,0.00,,,0.00,Wunderground v.1.15,2013-08-24 13:25:00,
2013-08-24 08:35:00,78.6,75.4,30.03,East,94,4.0,8.0,90,0.00,,,0.00,Wunderground v.1.15,2013-08-24 13:35:00,
2013-08-24 08:40:00,78.8,75.3,30.03,East,91,4.0,7.0,89,0.00,,,0.00,Wunderground v.1.15,2013-08-24 13:40:00,
2013-08-24 08:45:00,78.9,75.0,30.03,East,93,6.0,7.0,88,0.00,,,0.00,Wunderground v.1.15,2013-08-24 13:45:00,
2013-08-24 08:55:00,79.3,75.4,30.04,NE,40,5.0,6.0,88,0.00,,,0.00,Wunderground v.1.15,2013-08-24 13:55:00,
2013-08-24 09:00:00,79.8,75.2,30.04,ENE,70,5.0,5.0,86,0.00,,,0.00,Wunderground v.1.15,2013-08-24 14:00:00,
2013-08-24 09:05:00,79.4,75.2,30.03,ENE,57,6.0,6.0,87,0.00,,,0.00,Wunderground v.1.15,2013-08-24 14:05:00,
2013-08-24 09:15:00,80.1,75.5,30.03,NNE,16,5.0,6.0,86,0.00,,,0.00,Wunderground v.1.15,2013-08-24 14:15:00,
2013-08-24 09:20:00,80.2,75.3,30.03,NE,47,5.0,6.0,85,0.00,,,0.00,Wunderground v.1.15,2013-08-24 14:20:00,
2013-08-24 09:30:00,80.6,75.0,30.03,East,84,6.0,11.0,83,0.00,,,0.00,Wunderground v.1.15,2013-08-24 14:30:00,
2013-08-24 09:35:00,80.8,75.2,30.03,ENE,78,7.0,11.0,83,0.00,,,0.00,Wunderground v.1.15,2013-08-24 14:35:00,
2013-08-24 09:40:00,81.5,75.1,30.03,East,89,7.0,8.0,81,0.00,,,0.00,Wunderground v.1.15,2013-08-24 14:40:00,
2013-08-24 09:50:00,82.0,75.6,30.03,ENE,70,6.0,6.0,81,0.00,,,0.00,Wunderground v.1.15,2013-08-24 14:50:00,
2013-08-24 09:55:00,81.8,74.6,30.04,East,98,6.0,7.0,79,0.00,,,0.00,Wunderground v.1.15,2013-08-24 14:55:00,
2013-08-24 10:00:00,81.4,74.6,30.04,ESE,109,7.0,7.0,80,0.00,,,0.00,Wunderground v.1.15,2013-08-24 15:00:00,
2013-08-24 10:10:00,82.2,75.0,30.04,ENE,75,7.0,7.0,79,0.00,,,0.00,Wunderground v.1.15,2013-08-24 15:10:00,
2013-08-24 10:15:00,82.5,74.9,30.04,ENE,75,7.0,7.0,78,0.00,,,0.00,Wunderground v.1.15,2013-08-24 15:15:00,
2013-08-24 10:25:00,82.4,74.5,30.04,East,82,7.0,7.0,77,0.00,,,0.00,Wunderground v.1.15,2013-08-24 15:25:00,
2013-08-24 10:30:00,82.2,74.7,30.03,ENE,66,7.0,9.0,78,0.00,,,0.00,Wunderground v.1.15,2013-08-24 15:30:00,
2013-08-24 10:35:00,82.4,74.8,30.03,NNE,32,6.0,9.0,78,0.00,,,0.00,Wunderground v.1.15,2013-08-24 15:35:00,
2013-08-24 10:45:00,83.2,74.8,30.04,East,96,6.0,6.0,76,0.00,,,0.00,Wunderground v.1.15,2013-08-24 15:45:00,
2013-08-24 10:50:00,83.7,75.3,30.04,ENE,61,6.0,6.0,76,0.00,,,0.00,Wunderground v.1.15,2013-08-24 15:50:00,
2013-08-24 11:00:00,84.3,75.1,30.04,ESE,104,6.0,6.0,74,0.00,,,0.00,Wunderground v.1.15,2013-08-24 16:00:00,
2013-08-24 11:05:00,84.4,74.8,30.04,ESE,103,7.0,7.0,73,0.00,,,0.00,Wunderground v.1.15,2013-08-24 16:05:00,
2013-08-24 11:15:00,84.3,75.1,30.04,ESE,105,4.0,8.0,74,0.00,,,0.00,Wunderground v.1.15,2013-08-24 16:15:00,
2013-08-24 11:20:00,84.4,74.8,30.04,NE,46,5.0,5.0,73,0.00,,,0.00,Wunderground v.1.15,2013-08-24 16:20:00,
2013-08-24 11:30:00,84.5,74.9,30.03,NE,53,7.0,7.0,73,0.00,,,0.00,Wunderground v.1.15,2013-08-24 16:30:00,
2013-08-24 11:35:00,84.5,75.3,30.04,NE,56,6.0,9.0,74,0.00,,,0.00,Wunderground v.1.15,2013-08-24 16:35:00,
2013-08-24 11:40:00,85.1,75.1,30.03,ENE,70,6.0,6.0,72,0.00,,,0.00,Wunderground v.1.15,2013-08-24 16:40:00,
2013-08-24 11:50:00,85.8,74.9,30.03,ENE,70,7.0,7.0,70,0.00,,,0.00,Wunderground v.1.15,2013-08-24 16:50:00,
2013-08-24 11:55:00,86.2,74.8,30.03,ENE,66,7.0,8.0,69,0.00,,,0.00,Wunderground v.1.15,2013-08-24 16:55:00,
2013-08-24 12:05:00,87.5,75.6,30.03,East,90,7.0,8.0,68,0.00,,,0.00,Wunderground v.1.15,2013-08-24 17:05:00,
2013-08-24 12:10:00,87.2,74.5,30.03,ESE,109,7.0,8.0,66,0.00,,,0.00,Wunderground v.1.15,2013-08-24 17:10:00,
2013-08-24 12:15:00,87.2,74.9,30.03,ENE,63,7.0,8.0,67,0.00,,,0.00,Wunderground v.1.15,2013-08-24 17:15:00,
2013-08-24 12:25:00,86.3,74.5,30.03,ENE,75,7.0,9.0,68,0.00,,,0.00,Wunderground v.1.15,2013-08-24 17:25:00,
2013-08-24 12:30:00,86.1,74.3,30.02,North,6,7.0,8.0,68,0.00,,,0.00,Wunderground v.1.15,2013-08-24 17:30:00,
2013-08-24 12:40:00,85.9,74.5,30.02,NE,53,7.0,7.0,69,0.00,,,0.00,Wunderground v.1.15,2013-08-24 17:40:00,
2013-08-24 12:45:00,85.9,74.5,30.02,ENE,69,6.0,7.0,69,0.00,,,0.00,Wunderground v.1.15,2013-08-24 17:45:00,
2013-08-24 12:55:00,86.9,75.1,30.02,SE,124,7.0,10.0,68,0.00,,,0.00,Wunderground v.1.15,2013-08-24 17:55:00,
2013-08-24 13:00:00,87.2,73.5,30.02,NE,49,7.0,15.0,64,0.00,,,0.00,Wunderground v.1.15,2013-08-24 18:00:00,
2013-08-24 13:10:00,88.3,74.6,30.02,East,93,9.0,9.0,64,0.00,,,0.00,Wunderground v.1.15,2013-08-24 18:10:00,
2013-08-24 13:15:00,89.2,75.4,30.02,ESE,108,7.0,9.0,64,0.00,,,0.00,Wunderground v.1.15,2013-08-24 18:15:00,
2013-08-24 13:20:00,88.8,74.1,30.02,ENE,65,7.0,9.0,62,0.00,,,0.00,Wunderground v.1.15,2013-08-24 18:20:00,
2013-08-24 13:30:00,87.2,74.5,30.02,ESE,111,7.0,11.0,66,0.00,,,0.00,Wunderground v.1.15,2013-08-24 18:30:00,
2013-08-24 13:35:00,87.6,74.4,30.02,ENE,75,7.0,12.0,65,0.00,,,0.00,Wunderground v.1.15,2013-08-24 18:35:00,
2013-08-24 13:45:00,87.3,74.1,30.02,NE,54,9.0,9.0,65,0.00,,,0.00,Wunderground v.1.15,2013-08-24 18:45:00,
2013-08-24 13:50:00,87.3,74.5,30.02,SE,127,8.0,10.0,66,0.00,,,0.00,Wunderground v.1.15,2013-08-24 18:50:00,
2013-08-24 14:00:00,86.6,74.3,30.02,East,95,9.0,9.0,67,0.00,,,0.00,Wunderground v.1.15,2013-08-24 19:00:00,
2013-08-24 14:05:00,86.9,75.9,30.02,East,79,8.0,13.0,70,0.00,,,0.00,Wunderground v.1.15,2013-08-24 19:05:00,
2013-08-24 14:15:00,85.4,74.9,30.02,SE,129,8.0,12.0,71,0.00,,,0.00,Wunderground v.1.15,2013-08-24 19:15:00,
2013-08-24 14:20:00,84.3,74.7,30.03,ESE,105,9.0,9.0,73,0.00,,,0.00,Wunderground v.1.15,2013-08-24 19:20:00,
2013-08-24 14:25:00,80.4,74.0,30.03,ESE,110,11.0,13.0,81,0.40,,,0.02,Wunderground v.1.15,2013-08-24 19:25:00,
2013-08-24 14:35:00,77.6,74.8,30.03,ESE,108,7.0,11.0,91,0.09,,,0.10,Wunderground v.1.15,2013-08-24 19:35:00,
2013-08-24 14:40:00,77.9,75.1,30.02,East,98,5.0,5.0,91,0.05,,,0.10,Wunderground v.1.15,2013-08-24 19:40:00,
2013-08-24 14:50:00,78.5,75.3,30.02,ENE,77,3.0,4.0,90,0.00,,,0.10,Wunderground v.1.15,2013-08-24 19:50:00,
2013-08-24 14:55:00,79.3,76.1,30.01,ESE,106,3.0,4.0,90,0.00,,,0.10,Wunderground v.1.15,2013-08-24 19:55:00,
2013-08-24 15:05:00,80.6,76.0,30.01,ESE,114,5.0,6.0,86,0.00,,,0.10,Wunderground v.1.15,2013-08-24 20:05:00,
2013-08-24 15:10:00,81.2,75.9,30.01,SE,125,6.0,6.0,84,0.00,,,0.10,Wunderground v.1.15,2013-08-24 20:10:00,
2013-08-24 15:15:00,82.0,76.7,30.01,ESE,108,6.0,6.0,84,0.00,,,0.10,Wunderground v.1.15,2013-08-24 20:15:00,
2013-08-24 15:25:00,82.9,75.7,30.01,ESE,117,7.0,9.0,79,0.00,,,0.10,Wunderground v.1.15,2013-08-24 20:25:00,
2013-08-24 15:30:00,83.1,74.4,30.02,East,88,8.0,8.0,75,0.00,,,0.10,Wunderground v.1.15,2013-08-24 20:30:00,
2013-08-24 15:40:00,83.7,74.9,30.01,ENE,68,8.0,8.0,75,0.00,,,0.10,Wunderground v.1.15,2013-08-24 20:40:00,
2013-08-24 15:45:00,83.9,75.5,30.01,ESE,110,8.0,8.0,76,0.00,,,0.10,Wunderground v.1.15,2013-08-24 20:45:00,
2013-08-24 15:50:00,83.9,75.5,30.01,ENE,71,8.0,8.0,76,0.00,,,0.10,Wunderground v.1.15,2013-08-24 20:50:00,
2013-08-24 16:00:00,84.3,75.5,30.01,East,92,6.0,10.0,75,0.00,,,0.10,Wunderground v.1.15,2013-08-24 21:00:00,
2013-08-24 16:05:00,84.4,75.6,30.01,ENE,70,7.0,10.0,75,0.00,,,0.10,Wunderground v.1.15,2013-08-24 21:05:00,
2013-08-24 16:10:00,84.5,76.1,30.01,ESE,110,7.0,8.0,76,0.00,,,0.10,Wunderground v.1.15,2013-08-24 21:10:00,
2013-08-24 16:20:00,85.2,76.4,30.00,ENE,65,7.0,7.0,75,0.00,,,0.10,Wunderground v.1.15,2013-08-24 21:20:00,
2013-08-24 16:25:00,85.4,76.2,30.00,ESE,105,7.0,14.0,74,0.00,,,0.10,Wunderground v.1.15,2013-08-24 21:25:00,
2013-08-24 16:30:00,85.6,75.9,30.01,NE,52,7.0,7.0,73,0.00,,,0.10,Wunderground v.1.15,2013-08-24 21:30:00,
2013-08-24 16:40:00,85.2,75.6,30.00,ESE,119,8.0,11.0,73,0.00,,,0.10,Wunderground v.1.15,2013-08-24 21:40:00,
2013-08-24 16:45:00,85.5,75.4,30.00,East,96,7.0,11.0,72,0.00,,,0.10,Wunderground v.1.15,2013-08-24 21:45:00,
2013-08-24 16:55:00,86.0,74.6,30.00,ESE,112,8.0,8.0,69,0.00,,,0.10,Wunderground v.1.15,2013-08-24 21:55:00,
2013-08-24 17:00:00,86.3,74.5,30.00,NE,56,8.0,11.0,68,0.00,,,0.10,Wunderground v.1.15,2013-08-24 22:00:00,
2013-08-24 17:10:00,86.2,74.4,30.00,East,79,9.0,9.0,68,0.00,,,0.10,Wunderground v.1.15,2013-08-24 22:10:00,
2013-08-24 17:15:00,86.0,74.2,29.99,ESE,117,9.0,9.0,68,0.00,,,0.10,Wunderground v.1.15,2013-08-24 22:15:00,
2013-08-24 17:20:00,85.9,74.5,29.99,NNW,337,8.0,8.0,69,0.00,,,0.10,Wunderground v.1.15,2013-08-24 22:20:00,
2013-08-24 17:30:00,85.3,74.4,30.00,ESE,108,7.0,11.0,70,0.00,,,0.10,Wunderground v.1.15,2013-08-24 22:30:00,
2013-08-24 17:35:00,85.0,73.3,30.00,ESE,106,8.0,11.0,68,0.00,,,0.10,Wunderground v.1.15,2013-08-24 22:35:00,
2013-08-24 17:40:00,85.1,73.3,30.00,SE,129,9.0,9.0,68,0.00,,,0.10,Wunderground v.1.15,2013-08-24 22:40:00,
2013-08-24 17:50:00,85.2,73.4,29.99,East,90,7.0,7.0,68,0.00,,,0.10,Wunderground v.1.15,2013-08-24 22:50:00,
2013-08-24 17:55:00,84.9,73.6,29.99,East,89,7.0,7.0,69,0.00,,,0.10,Wunderground v.1.15,2013-08-24 22:55:00,
2013-08-24 18:05:00,85.4,74.1,29.99,East,79,7.0,8.0,69,0.00,,,0.10,Wunderground v.1.15,2013-08-24 23:05:00,
2013-08-24 18:10:00,85.4,74.5,29.99,ESE,109,8.0,8.0,70,0.00,,,0.10,Wunderground v.1.15,2013-08-24 23:10:00,
2013-08-24 18:15:00,85.4,74.5,29.99,SE,132,7.0,9.0,70,0.00,,,0.10,Wunderground v.1.15,2013-08-24 23:15:00,
2013-08-24 18:25:00,84.9,74.0,29.99,ESE,117,7.0,7.0,70,0.00,,,0.10,Wunderground v.1.15,2013-08-24 23:25:00,
2013-08-24 18:30:00,84.7,74.3,30.00,ESE,119,6.0,6.0,71,0.00,,,0.10,Wunderground v.1.15,2013-08-24 23:30:00,
2013-08-24 18:40:00,84.4,74.0,30.00,ESE,114,6.0,7.0,71,0.00,,,0.10,Wunderground v.1.15,2013-08-24 23:40:00,
2013-08-24 18:45:00,84.3,74.3,30.00,East,86,7.0,8.0,72,0.00,,,0.10,Wunderground v.1.15,2013-08-24 23:45:00,
2013-08-24 18:50:00,84.1,74.1,30.00,ESE,105,7.0,8.0,72,0.00,,,0.10,Wunderground v.1.15,2013-08-24 23:50:00,
2013-08-24 19:00:00,83.8,74.2,29.99,SE,134,5.0,5.0,73,0.00,,,0.10,Wunderground v.1.15,2013-08-25 00:00:00,
2013-08-24 19:05:00,83.5,74.3,30.00,SE,130,5.0,5.0,74,0.00,,,0.10,Wunderground v.1.15,2013-08-25 00:05:00,
2013-08-24 19:15:00,82.9,74.6,30.00,East,94,5.0,5.0,76,0.00,,,0.10,Wunderground v.1.15,2013-08-25 00:15:00,
2013-08-24 19:20:00,82.8,74.5,30.00,ESE,105,5.0,5.0,76,0.00,,,0.10,Wunderground v.1.15,2013-08-25 00:20:00,
2013-08-24 19:30:00,82.4,74.5,30.00,East,94,4.0,4.0,77,0.00,,,0.10,Wunderground v.1.15,2013-08-25 00:30:00,
2013-08-24 19:35:00,82.1,74.6,30.00,East,101,4.0,4.0,78,0.00,,,0.10,Wunderground v.1.15,2013-08-25 00:35:00,
2013-08-24 19:45:00,81.8,75.0,30.00,ESE,112,4.0,6.0,80,0.00,,,0.10,Wunderground v.1.15,2013-08-25 00:45:00,
2013-08-24 19:50:00,81.5,74.7,30.00,East,101,6.0,6.0,80,0.00,,,0.10,Wunderground v.1.15,2013-08-25 00:50:00,
2013-08-24 19:55:00,81.2,74.4,30.00,SE,139,6.0,6.0,80,0.00,,,0.10,Wunderground v.1.15,2013-08-25 00:55:00,
2013-08-24 20:05:00,80.7,74.3,30.01,ESE,119,6.0,12.0,81,0.00,,,0.10,Wunderground v.1.15,2013-08-25 01:05:00,
2013-08-24 20:10:00,80.5,74.5,30.01,SW,233,6.0,6.0,82,0.00,,,0.10,Wunderground v.1.15,2013-08-25 01:10:00,
2013-08-24 20:20:00,79.9,74.3,30.00,ESE,122,5.0,5.0,83,0.00,,,0.10,Wunderground v.1.15,2013-08-25 01:20:00,
2013-08-24 20:25:00,79.8,74.2,30.01,ESE,113,4.0,5.0,83,0.00,,,0.10,Wunderground v.1.15,2013-08-25 01:25:00,
2013-08-24 20:30:00,79.5,74.2,30.01,SE,137,4.0,4.0,84,0.00,,,0.10,Wunderground v.1.15,2013-08-25 01:30:00,
2013-08-24 20:40:00,79.1,74.2,30.01,SE,136,4.0,7.0,85,0.00,,,0.10,Wunderground v.1.15,2013-08-25 01:40:00,
2013-08-24 20:45:00,79.0,74.1,30.02,SE,127,5.0,7.0,85,0.00,,,0.10,Wunderground v.1.15,2013-08-25 01:45:00,
2013-08-24 20:50:00,78.9,74.4,30.02,SE,130,5.0,5.0,86,0.00,,,0.10,Wunderground v.1.15,2013-08-25 01:50:00,
2013-08-24 21:00:00,78.4,74.2,30.03,ESE,116,4.0,4.0,87,0.00,,,0.10,Wunderground v.1.15,2013-08-25 02:00:00,
2013-08-24 21:05:00,78.2,74.4,30.03,East,101,3.0,4.0,88,0.00,,,0.10,Wunderground v.1.15,2013-08-25 02:05:00,
2013-08-24 21:15:00,78.0,74.2,30.04,SE,141,4.0,4.0,88,0.00,,,0.10,Wunderground v.1.15,2013-08-25 02:15:00,
2013-08-24 21:20:00,77.8,74.0,30.04,ENE,69,3.0,4.0,88,0.00,,,0.10,Wunderground v.1.15,2013-08-25 02:20:00,
2013-08-24 21:25:00,77.7,73.9,30.04,ESE,116,3.0,4.0,88,0.00,,,0.10,Wunderground v.1.15,2013-08-25 02:25:00,
2013-08-24 21:35:00,77.5,74.0,30.05,SE,138,3.0,4.0,89,0.00,,,0.10,Wunderground v.1.15,2013-08-25 02:35:00,
2013-08-24 21:40:00,77.4,73.9,30.05,East,92,3.0,3.0,89,0.00,,,0.10,Wunderground v.1.15,2013-08-25 02:40:00,
2013-08-24 21:50:00,77.1,73.9,30.05,ESE,108,3.0,3.0,90,0.00,,,0.10,Wunderground v.1.15,2013-08-25 02:50:00,
2013-08-24 21:55:00,77.0,73.8,30.05,ENE,72,2.0,3.0,90,0.00,,,0.10,Wunderground v.1.15,2013-08-25 02:55:00,
2013-08-24 22:00:00,76.8,74.0,30.06,East,97,2.0,3.0,91,0.00,,,0.10,Wunderground v.1.15,2013-08-25 03:00:00,
2013-08-24 22:10:00,76.5,74.0,30.06,ESE,113,2.0,3.0,92,0.00,,,0.10,Wunderground v.1.15,2013-08-25 03:10:00,
2013-08-24 22:15:00,76.5,74.0,30.06,ESE,110,2.0,4.0,92,0.00,,,0.10,Wunderground v.1.15,2013-08-25 03:15:00,
2013-08-24 22:25:00,76.2,73.7,30.06,East,100,3.0,4.0,92,0.00,,,0.10,Wunderground v.1.15,2013-08-25 03:25:00,
2013-08-24 22:30:00,76.1,73.6,30.07,SE,128,3.0,3.0,92,0.00,,,0.10,Wunderground v.1.15,2013-08-25 03:30:00,
2013-08-24 22:40:00,75.9,73.7,30.07,SE,131,3.0,3.0,93,0.00,,,0.10,Wunderground v.1.15,2013-08-25 03:40:00,
2013-08-24 22:45:00,75.8,73.6,30.07,ESE,106,3.0,3.0,93,0.00,,,0.10,Wunderground v.1.15,2013-08-25 03:45:00,
2013-08-24 22:50:00,75.8,73.6,30.07,East,98,3.0,3.0,93,0.00,,,0.10,Wunderground v.1.15,2013-08-25 03:50:00,
2013-08-24 23:00:00,75.6,73.4,30.07,ESE,122,3.0,3.0,93,0.00,,,0.10,Wunderground v.1.15,2013-08-25 04:00:00,
2013-08-24 23:05:00,75.5,73.3,30.07,SE,129,3.0,3.0,93,0.00,,,0.10,Wunderground v.1.15,2013-08-25 04:05:00,
2013-08-24 23:10:00,75.4,73.2,30.07,ESE,108,3.0,3.0,93,0.00,,,0.10,Wunderground v.1.15,2013-08-25 04:10:00,
2013-08-24 23:15:00,75.3,73.1,30.07,ESE,114,2.0,3.0,93,0.00,,,0.10,Wunderground v.1.15,2013-08-25 04:15:00,
2013-08-24 23:20:00,75.3,73.1,30.07,ESE,106,2.0,3.0,93,0.00,,,0.10,Wunderground v.1.15,2013-08-25 04:20:00,
2013-08-24 23:25:00,75.2,73.0,30.07,SE,124,3.0,3.0,93,0.00,,,0.10,Wunderground v.1.15,2013-08-25 04:25:00,
2013-08-24 23:35:00,75.1,73.3,30.07,ESE,106,2.0,3.0,94,0.00,,,0.10,Wunderground v.1.15,2013-08-25 04:35:00,
2013-08-24 23:40:00,75.0,73.2,30.07,ESE,103,2.0,3.0,94,0.00,,,0.10,Wunderground v.1.15,2013-08-25 04:40:00,
2013-08-24 23:50:00,74.9,73.1,30.07,ENE,72,2.0,3.0,94,0.00,,,0.10,Wunderground v.1.15,2013-08-25 04:50:00,
2013-08-24 23:55:00,74.9,73.1,30.07,SE,134,2.0,3.0,94,0.00,,,0.10,Wunderground v.1.15,2013-08-25 04:55:00,